createdAt,value
2023-05-10T11:17:35.817Z,29.40
2023-05-10T11:20:12.056Z,28.98
2023-05-10T11:23:22.539Z,28.99
2023-05-10T11:29:09.750Z,28.77
2023-05-10T11:32:19.018Z,27.16
2023-05-10T11:35:00.674Z,27.49
2023-05-10T11:37:36.371Z,27.93
2023-05-10T11:40:26.014Z,27.96
2023-05-10T11:43:00.512Z,28.26
2023-05-10T11:46:24.006Z,27.49
2023-05-10T11:48:59.248Z,27.70
2023-05-10T11:51:44.195Z,26.54
2023-05-10T11:54:18.879Z,26.38
2023-05-10T11:56:55.400Z,25.53
2023-05-10T11:59:28.227Z,26.20
2023-05-10T12:02:13.469Z,25.54
2023-05-10T12:04:59.311Z,25.41
2023-05-10T12:07:38.208Z,25.69
2023-05-10T12:10:30.576Z,25.94
2023-05-10T12:13:03.658Z,26.18
2023-05-10T12:15:41.026Z,25.54
2023-05-10T12:18:30.909Z,25.54
2023-05-10T12:21:09.259Z,24.83
2023-05-10T12:24:12.145Z,25.00
2023-05-10T12:26:43.829Z,25.56
2023-05-10T12:29:21.990Z,24.87
2023-05-10T12:32:20.102Z,24.55
2023-05-10T12:34:51.931Z,25.21
2023-05-10T12:37:29.918Z,24.49
2023-05-10T12:41:31.800Z,24.38
2023-05-10T12:44:26.613Z,24.08
2023-05-10T12:48:18.983Z,24.21
2023-05-10T12:50:31.535Z,24.16
2023-05-10T12:53:03.682Z,24.50
2023-05-10T12:55:33.093Z,24.83
2023-05-10T12:58:08.376Z,24.45
2023-05-10T13:00:39.235Z,24.95
2023-05-10T13:03:14.016Z,24.23
2023-05-10T13:05:44.428Z,24.64
2023-05-10T13:08:15.427Z,24.35
2023-05-10T13:10:48.197Z,23.99
2023-05-10T13:13:18.114Z,24.42
2023-05-10T13:16:04.549Z,24.23
2023-05-10T13:18:37.410Z,24.93
2023-05-10T13:21:09.172Z,24.87
2023-05-10T13:23:38.464Z,25.07
2023-05-10T13:26:18.694Z,25.08
2023-05-10T13:29:05.694Z,25.35
2023-05-10T13:31:35.035Z,25.48
2023-05-10T13:34:23.972Z,25.64
2023-05-10T13:36:54.395Z,25.73
2023-05-10T13:39:24.395Z,26.23
2023-05-10T13:42:14.914Z,26.76
2023-05-10T13:44:44.407Z,27.20
2023-05-10T13:47:50.189Z,28.11
2023-05-10T13:50:21.333Z,28.52
2023-05-10T13:52:50.733Z,29.11
2023-05-10T13:55:22.554Z,29.22
2023-05-10T13:57:51.757Z,29.58
2023-05-10T14:00:22.644Z,29.86
2023-05-10T14:02:52.018Z,30.03
2023-05-10T14:05:26.662Z,30.30
2023-05-10T14:08:13.238Z,30.46
2023-05-10T14:10:42.826Z,30.81
2023-05-10T14:13:31.717Z,31.12
2023-05-10T14:16:18.437Z,31.08
2023-05-10T14:18:48.028Z,31.53
2023-05-10T14:21:19.067Z,31.46
2023-05-10T14:23:48.602Z,31.77
2023-05-10T14:26:34.862Z,31.89
2023-05-10T14:29:04.264Z,32.08
2023-05-10T14:31:39.425Z,32.42
2023-05-10T14:34:09.030Z,32.27
2023-05-10T14:36:40.935Z,32.61
2023-05-10T14:39:41.854Z,32.66
2023-05-10T14:42:11.308Z,32.96
2023-05-10T14:44:40.968Z,32.89
2023-05-10T14:47:28.932Z,33.28
2023-05-10T14:49:59.655Z,33.34
2023-05-10T14:52:32.865Z,33.62
2023-05-10T14:55:39.083Z,33.53
2023-05-10T14:58:25.001Z,33.16
2023-05-10T15:00:54.414Z,33.28
2023-05-10T15:03:26.331Z,33.63
2023-05-10T15:05:57.647Z,33.80
2023-05-10T15:08:28.309Z,34.16
2023-05-10T15:11:00.121Z,34.05
2023-05-10T15:13:30.795Z,34.40
2023-05-10T15:16:00.526Z,34.22
2023-05-10T15:18:29.922Z,34.76
2023-05-10T15:20:59.457Z,35.01
2023-05-10T15:23:48.927Z,35.00
2023-05-10T15:26:18.575Z,34.97
2023-05-10T15:29:05.299Z,35.28
2023-05-10T15:31:36.351Z,35.54
2023-05-10T15:34:07.864Z,35.40
2023-05-10T15:36:54.147Z,35.71
2023-05-10T15:39:26.111Z,35.81
2023-05-10T15:41:55.295Z,36.04
2023-05-10T15:44:25.684Z,36.07
2023-05-10T15:46:55.412Z,36.10
2023-05-10T15:49:42.933Z,36.13
2023-05-10T15:52:13.348Z,36.11
2023-05-10T15:55:02.307Z,36.48
2023-05-10T15:57:31.524Z,36.62
2023-05-10T16:00:01.311Z,36.80
2023-05-10T16:02:31.104Z,36.74
2023-05-10T16:05:01.427Z,36.70
2023-05-10T16:07:31.062Z,36.95
2023-05-10T16:10:04.548Z,37.18
2023-05-10T16:12:51.922Z,37.15
2023-05-10T16:15:22.200Z,37.17
2023-05-10T16:17:51.865Z,37.36
2023-05-10T16:20:21.519Z,37.87
2023-05-10T16:22:50.960Z,37.83
2023-05-10T16:25:22.057Z,37.70
2023-05-10T16:27:51.665Z,37.83
2023-05-10T16:30:23.031Z,38.31
2023-05-10T16:32:53.445Z,38.59
2023-05-10T16:35:23.956Z,38.61
2023-05-10T16:37:53.689Z,38.55
2023-05-10T16:40:24.883Z,38.94
2023-05-10T16:43:11.211Z,39.01
2023-05-10T16:45:40.743Z,39.61
2023-05-10T16:48:10.342Z,40.02
2023-05-10T16:50:39.721Z,39.91
2023-05-10T16:53:09.421Z,40.18
2023-05-10T16:55:59.043Z,40.59
2023-05-10T16:58:45.543Z,40.34
2023-05-10T17:01:14.973Z,40.38
2023-05-10T17:04:03.024Z,41.04
2023-05-10T17:06:32.614Z,40.74
2023-05-10T17:09:01.993Z,41.39
2023-05-10T17:11:51.324Z,41.62
2023-05-10T17:14:20.886Z,41.30
2023-05-10T17:16:53.168Z,41.72
2023-05-10T17:19:25.555Z,41.80
2023-05-10T17:21:55.749Z,41.73
2023-05-10T17:24:25.392Z,41.94
2023-05-10T17:27:13.336Z,41.96
2023-05-10T17:29:42.705Z,42.02
2023-05-10T17:32:12.086Z,42.04
2023-05-10T17:34:41.552Z,42.21
2023-05-10T17:37:11.680Z,42.63
2023-05-10T17:39:41.367Z,43.10
2023-05-10T17:42:12.905Z,43.12
2023-05-10T17:44:42.313Z,43.11
2023-05-10T17:47:28.721Z,42.88
2023-05-10T17:49:58.161Z,42.82
2023-05-10T17:52:27.615Z,42.94
2023-05-10T17:55:14.355Z,43.35
2023-05-10T17:57:45.275Z,43.33
2023-05-10T18:00:16.210Z,43.31
2023-05-10T18:02:45.640Z,43.74
2023-05-10T18:05:36.811Z,43.76
2023-05-10T18:08:06.482Z,43.71
2023-05-10T18:10:35.880Z,43.90
2023-05-10T18:13:08.553Z,44.12
2023-05-10T18:15:38.156Z,44.09
2023-05-10T18:18:07.847Z,44.41
2023-05-10T18:20:37.478Z,44.42
2023-05-10T18:23:24.904Z,44.88
2023-05-10T18:25:54.602Z,44.63
2023-05-10T18:28:26.314Z,44.54
2023-05-10T18:30:55.754Z,44.70
2023-05-10T18:33:25.393Z,45.39
2023-05-10T18:35:54.973Z,45.41
2023-05-10T18:38:24.424Z,45.28
2023-05-10T18:40:53.851Z,45.66
2023-05-10T18:43:26.538Z,45.75
2023-05-10T18:45:55.854Z,45.70
2023-05-10T18:48:25.222Z,45.75
2023-05-10T18:51:13.059Z,46.07
2023-05-10T18:54:00.955Z,46.26
2023-05-10T18:56:30.415Z,46.16
2023-05-10T18:59:19.616Z,46.40
2023-05-10T19:02:07.139Z,46.38
2023-05-10T19:04:36.581Z,46.29
2023-05-10T19:07:05.925Z,46.49
2023-05-10T19:09:35.194Z,46.62
2023-05-10T19:12:23.037Z,47.07
2023-05-10T19:14:54.362Z,46.99
2023-05-10T19:17:40.820Z,47.04
2023-05-10T19:20:10.823Z,47.03
2023-05-10T19:23:09.026Z,47.39
2023-05-10T19:25:39.794Z,47.24
2023-05-10T19:28:26.080Z,47.41
2023-05-10T19:30:57.028Z,47.74
2023-05-10T19:33:26.483Z,47.73
2023-05-10T19:35:56.454Z,48.14
2023-05-10T19:39:01.355Z,48.23
2023-05-10T19:41:30.709Z,47.81
2023-05-10T19:44:18.507Z,48.04
2023-05-10T19:46:49.440Z,48.15
2023-05-10T19:49:19.299Z,48.58
2023-05-10T19:51:48.597Z,48.44
2023-05-10T19:54:36.267Z,48.52
2023-05-10T19:57:05.681Z,48.23
2023-05-10T19:59:35.060Z,48.74
2023-05-10T20:02:41.338Z,48.48
2023-05-10T20:05:11.303Z,48.23
2023-05-10T20:07:58.685Z,48.18
2023-05-10T20:10:27.965Z,48.66
2023-05-10T20:13:15.333Z,48.11
2023-05-10T20:16:01.593Z,48.33
2023-05-10T20:18:32.534Z,48.87
2023-05-10T20:21:02.893Z,48.78
2023-05-10T20:24:07.724Z,48.86
2023-05-10T20:26:36.941Z,48.51
2023-05-10T20:29:06.253Z,48.90
2023-05-10T20:32:10.927Z,49.04
2023-05-10T20:34:59.536Z,48.78
2023-05-10T20:37:29.176Z,48.94
2023-05-10T20:39:58.538Z,48.95
2023-05-10T20:42:27.853Z,49.27
2023-05-10T20:45:15.531Z,49.09
2023-05-10T20:47:44.813Z,49.43
2023-05-10T20:50:15.804Z,49.58
2023-05-10T20:52:45.127Z,49.39
2023-05-10T20:55:14.481Z,49.49
2023-05-10T20:57:45.656Z,49.80
2023-05-10T21:00:16.167Z,49.49
2023-05-10T21:03:01.477Z,50.13
2023-05-10T21:05:32.732Z,49.90
2023-05-10T21:08:20.375Z,50.61
2023-05-10T21:11:08.258Z,50.48
2023-05-10T21:13:37.579Z,50.52
2023-05-10T21:16:24.471Z,50.47
2023-05-10T21:18:53.741Z,50.68
2023-05-10T21:21:24.700Z,50.46
2023-05-10T21:23:53.976Z,51.16
2023-05-10T21:26:23.673Z,50.98
2023-05-10T21:29:10.955Z,51.43
2023-05-10T21:31:40.218Z,51.08
2023-05-10T21:34:09.647Z,51.25
2023-05-10T21:36:41.020Z,51.51
2023-05-10T21:39:10.882Z,51.49
2023-05-10T21:41:40.160Z,51.48
2023-05-10T21:44:09.412Z,51.59
2023-05-10T21:46:38.631Z,51.50
2023-05-10T21:49:08.646Z,51.60
2023-05-10T21:51:39.595Z,51.58
2023-05-10T21:54:08.875Z,51.76
2023-05-10T21:56:38.155Z,51.23
2023-05-10T21:59:07.917Z,51.52
2023-05-10T22:01:37.366Z,51.62
2023-05-10T22:04:06.720Z,51.69
2023-05-10T22:06:35.965Z,51.90
2023-05-10T22:09:07.031Z,51.82
2023-05-10T22:11:36.260Z,51.90
2023-05-10T22:14:05.632Z,51.70
2023-05-10T22:16:34.995Z,51.96
2023-05-10T22:19:04.398Z,52.14
2023-05-10T22:21:33.777Z,51.81
2023-05-10T22:24:20.136Z,51.88
2023-05-10T22:27:09.194Z,51.82
2023-05-10T22:29:38.371Z,51.86
2023-05-10T22:32:08.050Z,51.57
2023-05-10T22:34:37.285Z,51.95
2023-05-10T22:37:24.676Z,52.29
2023-05-10T22:39:54.104Z,52.08
2023-05-10T22:42:24.861Z,52.16
2023-05-10T22:44:54.275Z,52.04
2023-05-10T22:47:23.476Z,52.30
2023-05-10T22:49:52.810Z,52.38
2023-05-10T22:52:22.015Z,52.05
2023-05-10T22:55:09.447Z,52.45
2023-05-10T22:57:40.349Z,52.48
2023-05-10T23:00:11.426Z,52.86
2023-05-10T23:02:59.106Z,53.04
2023-05-10T23:05:46.810Z,52.73
2023-05-10T23:08:16.353Z,52.95
2023-05-10T23:11:03.668Z,53.22
2023-05-10T23:13:34.413Z,53.47
2023-05-10T23:16:21.959Z,53.45
2023-05-10T23:19:26.793Z,53.16
2023-05-10T23:21:56.081Z,52.93
2023-05-10T23:24:43.544Z,53.22
2023-05-10T23:27:30.579Z,53.00
2023-05-10T23:30:01.316Z,52.61
2023-05-10T23:32:47.543Z,52.78
2023-05-10T23:35:33.616Z,52.57
2023-05-10T23:38:02.841Z,52.31
2023-05-10T23:40:32.054Z,52.46
2023-05-10T23:43:01.357Z,52.35
2023-05-10T23:45:32.071Z,52.38
2023-05-10T23:48:01.406Z,52.39
2023-05-10T23:50:49.057Z,52.33
2023-05-10T23:53:18.545Z,52.03
2023-05-10T23:55:47.890Z,52.03
2023-05-10T23:58:17.175Z,52.24
